Time;durP1;ratioP1;P1;durP2;ratioP2;P2;SDS_P1;SDS_P2;PMS_P1;PMS_P2;Temp;Humidity;BMP_temperature;BMP_pressure;BME280_temperature;BME280_humidity;BME280_pressure;Samples;Min_cycle;Max_cycle;Signal;HPM_P1;HPM_P2
2022/03/11 00:02:16;;;;;;;4.53;4.23;;;18.40;34.60;;;;;;5121409;27;20208;-62
2022/03/11 00:04:42;;;;;;;4.90;4.50;;;18.40;34.60;;;;;;5118754;27;20454;-62
2022/03/11 00:09:35;;;;;;;4.83;4.40;;;18.40;34.70;;;;;;5056169;28;20255;-76
2022/03/11 00:12:01;;;;;;;4.57;4.23;;;18.30;34.60;;;;;;5047588;28;20451;-76
2022/03/11 00:14:27;;;;;;;4.13;3.73;;;18.40;34.70;;;;;;5049564;28;20217;-76
2022/03/11 00:16:52;;;;;;;4.93;4.43;;;18.40;34.70;;;;;;5072759;28;20728;-76
2022/03/11 00:19:18;;;;;;;4.97;4.57;;;18.40;34.70;;;;;;5077499;28;20214;-76
2022/03/11 00:21:44;;;;;;;4.50;4.20;;;18.30;34.60;;;;;;5049236;28;20221;-76
2022/03/11 00:24:09;;;;;;;5.30;4.80;;;18.40;34.70;;;;;;5069060;28;20751;-76
2022/03/11 00:26:35;;;;;;;4.40;4.00;;;18.40;34.70;;;;;;5066923;28;20238;-76
2022/03/11 00:29:01;;;;;;;4.13;3.83;;;18.40;34.70;;;;;;5069470;28;20301;-76
2022/03/11 00:31:28;;;;;;;6.10;5.50;;;18.30;34.60;;;;;;5069179;28;20588;-76
2022/03/11 00:33:54;;;;;;;4.60;4.13;;;18.30;34.60;;;;;;5067466;28;20455;-76
2022/03/11 00:36:19;;;;;;;4.40;4.10;;;18.40;34.70;;;;;;5069009;28;20982;-76
2022/03/11 00:38:45;;;;;;;4.40;4.10;;;18.40;34.70;;;;;;5050081;28;20496;-76
2022/03/11 00:41:11;;;;;;;4.60;4.23;;;18.40;34.70;;;;;;5068708;28;20217;-76
2022/03/11 00:43:36;;;;;;;4.40;4.10;;;18.40;34.70;;;;;;5083782;28;20226;-76
2022/03/11 00:46:02;;;;;;;4.83;4.50;;;18.40;34.70;;;;;;5039917;28;20220;-76
2022/03/11 00:48:28;;;;;;;3.53;3.33;;;18.40;34.70;;;;;;5050163;28;20256;-76
2022/03/11 00:50:53;;;;;;;5.70;4.93;;;18.40;34.70;;;;;;5047496;28;20264;-76
2022/03/11 00:53:20;;;;;;;5.37;4.87;;;18.40;34.80;;;;;;5080337;28;21484;-76
2022/03/11 00:55:45;;;;;;;3.97;3.50;;;18.40;34.70;;;;;;5043542;28;20230;-76
2022/03/11 00:58:11;;;;;;;7.77;4.33;;;18.30;34.60;;;;;;5048537;28;20887;-76
2022/03/11 01:00:37;;;;;;;4.33;3.93;;;18.40;34.70;;;;;;5048151;28;20435;-76
2022/03/11 01:03:02;;;;;;;4.43;4.13;;;18.40;34.70;;;;;;5078680;28;20223;-76
2022/03/11 01:05:28;;;;;;;4.73;4.27;;;18.40;34.70;;;;;;5048654;28;20218;-76
2022/03/11 01:07:53;;;;;;;4.40;4.00;;;18.40;34.70;;;;;;5047865;28;20578;-76
2022/03/11 01:10:19;;;;;;;4.17;3.77;;;18.40;34.70;;;;;;5055896;28;20222;-76
2022/03/11 01:12:45;;;;;;;4.47;3.83;;;18.40;34.80;;;;;;5048795;28;20305;-76
2022/03/11 01:15:11;;;;;;;4.40;4.00;;;18.40;34.70;;;;;;5070324;28;20226;-76
2022/03/11 01:17:38;;;;;;;4.53;4.13;;;18.30;34.70;;;;;;5069161;28;20258;-76
2022/03/11 01:20:05;;;;;;;3.87;3.67;;;18.30;34.70;;;;;;5047446;28;20858;-76
2022/03/11 01:22:31;;;;;;;4.30;4.00;;;18.30;34.60;;;;;;5048495;28;20497;-76
2022/03/11 01:24:57;;;;;;;3.77;3.37;;;18.40;34.70;;;;;;5078355;28;20450;-76
2022/03/11 01:27:22;;;;;;;4.30;3.87;;;18.30;34.70;;;;;;5047814;28;20436;-76
2022/03/11 01:29:48;;;;;;;3.37;3.17;;;18.30;34.60;;;;;;5064979;28;20243;-76
2022/03/11 01:32:14;;;;;;;4.73;4.10;;;18.30;34.60;;;;;;5046810;28;20289;-76
2022/03/11 01:34:40;;;;;;;4.43;4.23;;;18.30;34.70;;;;;;5077254;28;20226;-76
2022/03/11 01:37:06;;;;;;;5.00;4.20;;;18.30;34.70;;;;;;5042259;28;20598;-76
2022/03/11 01:39:31;;;;;;;4.10;3.80;;;18.30;34.70;;;;;;5047066;28;20451;-73
2022/03/11 01:41:57;;;;;;;3.90;3.50;;;18.30;34.70;;;;;;5046934;28;20356;-74
2022/03/11 01:44:25;;;;;;;4.20;3.50;;;18.30;34.70;;;;;;5047652;28;20276;-74
2022/03/11 01:46:51;;;;;;;4.33;3.60;;;18.30;34.60;;;;;;5046944;28;20240;-75
2022/03/11 01:49:17;;;;;;;4.40;4.07;;;18.40;34.70;;;;;;5046794;28;20951;-74
2022/03/11 01:51:43;;;;;;;3.63;3.33;;;18.40;34.80;;;;;;5035624;28;20228;-74
2022/03/11 01:54:09;;;;;;;4.20;3.83;;;18.30;34.60;;;;;;5061315;28;20310;-74
2022/03/11 01:56:39;;;;;;;3.87;3.50;;;18.30;34.60;;;;;;5066500;28;21043;-74
2022/03/11 01:59:06;;;;;;;3.67;3.37;;;18.40;34.80;;;;;;5067719;28;20978;-74
2022/03/11 02:01:32;;;;;;;4.20;3.90;;;18.30;34.60;;;;;;5065737;28;20451;-74
2022/03/11 02:03:58;;;;;;;3.93;3.50;;;18.30;34.70;;;;;;5066897;28;20529;-75
2022/03/11 02:06:24;;;;;;;3.90;3.50;;;18.40;34.70;;;;;;5067390;28;20220;-74
2022/03/11 02:08:50;;;;;;;4.50;4.17;;;18.30;34.70;;;;;;5066961;28;20295;-74
2022/03/11 02:11:16;;;;;;;4.00;3.70;;;18.40;34.80;;;;;;5067847;28;20512;-74
2022/03/11 02:13:50;;;;;;;3.77;3.57;;;18.30;34.60;;;;;;5068453;28;20454;-74
2022/03/11 02:16:30;;;;;;;3.70;3.40;;;18.30;34.70;;;;;;5066429;28;20232;-74
2022/03/11 02:18:56;;;;;;;3.13;2.93;;;18.40;34.80;;;;;;5066823;28;20534;-74
2022/03/11 02:21:23;;;;;;;3.93;3.57;;;18.30;34.70;;;;;;5063104;28;20436;-74
2022/03/11 02:23:52;;;;;;;4.17;3.87;;;18.40;34.70;;;;;;5066831;28;20440;-75
2022/03/11 02:26:19;;;;;;;3.93;3.63;;;18.40;34.80;;;;;;5066698;28;20523;-74
2022/03/11 02:28:45;;;;;;;4.13;3.73;;;18.40;34.70;;;;;;5047038;28;20465;-74
2022/03/11 02:31:11;;;;;;;4.37;3.97;;;18.40;34.70;;;;;;5049035;28;20481;-75
2022/03/11 02:33:37;;;;;;;3.73;3.40;;;18.30;34.60;;;;;;5067229;28;20466;-74
2022/03/11 02:36:04;;;;;;;6.43;3.90;;;18.40;34.70;;;;;;5066259;28;20231;-75
2022/03/11 02:38:30;;;;;;;5.27;3.70;;;18.40;34.70;;;;;;5066754;28;20450;-74
2022/03/11 02:40:56;;;;;;;3.70;3.43;;;18.40;34.70;;;;;;5055596;28;20935;-75
2022/03/11 02:43:22;;;;;;;3.33;3.13;;;18.40;34.70;;;;;;5051876;28;20438;-74
2022/03/11 02:45:48;;;;;;;3.80;3.50;;;18.40;34.80;;;;;;5041965;28;20313;-75
2022/03/11 02:48:13;;;;;;;3.87;3.47;;;18.30;34.60;;;;;;5051514;28;20546;-75
2022/03/11 02:50:39;;;;;;;3.90;3.60;;;18.40;34.70;;;;;;5046980;28;20321;-75
2022/03/11 02:53:05;;;;;;;3.40;3.20;;;18.40;34.70;;;;;;5051847;28;20218;-75
2022/03/11 02:55:30;;;;;;;3.63;3.20;;;18.40;34.80;;;;;;5050402;28;20246;-74
2022/03/11 02:57:56;;;;;;;3.40;3.10;;;18.40;34.70;;;;;;5052223;28;20218;-74
2022/03/11 03:00:22;;;;;;;3.33;3.13;;;18.40;34.80;;;;;;5043579;28;20223;-74
2022/03/11 03:02:48;;;;;;;3.40;3.20;;;18.40;34.70;;;;;;5051258;28;20221;-74
2022/03/11 03:05:14;;;;;;;3.63;3.43;;;18.40;34.70;;;;;;5051105;28;20218;-75
2022/03/11 03:07:40;;;;;;;3.27;3.00;;;18.40;34.80;;;;;;5051203;28;20532;-75
2022/03/11 03:10:06;;;;;;;2.87;2.67;;;18.40;34.80;;;;;;5050336;28;20236;-75
2022/03/11 03:12:32;;;;;;;3.37;3.07;;;18.40;35.60;;;;;;5048540;28;20441;-75
2022/03/11 03:14:58;;;;;;;3.40;3.20;;;18.40;34.80;;;;;;5049239;28;20418;-75
2022/03/11 03:17:24;;;;;;;3.80;3.60;;;18.40;34.80;;;;;;5051716;28;20302;-74
2022/03/11 03:19:50;;;;;;;3.70;3.50;;;18.40;34.80;;;;;;5059971;28;20218;-75
2022/03/11 03:22:16;;;;;;;3.23;3.03;;;18.40;34.80;;;;;;5036147;28;20214;-73
2022/03/11 03:24:42;;;;;;;3.90;3.70;;;18.40;34.80;;;;;;5052373;28;20856;-76
2022/03/11 03:27:09;;;;;;;3.50;3.20;;;18.40;34.80;;;;;;5051856;28;20416;-76
2022/03/11 03:29:35;;;;;;;3.70;3.40;;;18.40;34.80;;;;;;5051428;28;20553;-76
2022/03/11 03:32:01;;;;;;;3.33;3.03;;;18.40;34.80;;;;;;5049360;28;20542;-76
2022/03/11 03:34:32;;;;;;;3.70;3.40;;;18.40;34.80;;;;;;5071115;28;20487;-76
2022/03/11 03:37:07;;;;;;;3.57;3.27;;;18.40;34.70;;;;;;5070253;28;20295;-76
2022/03/11 03:39:33;;;;;;;6.77;3.80;;;18.40;34.80;;;;;;5070813;28;20955;-76
2022/03/11 03:41:58;;;;;;;3.23;2.90;;;18.40;34.80;;;;;;5070101;28;20421;-76
2022/03/11 03:44:24;;;;;;;3.07;2.87;;;18.40;34.80;;;;;;5069727;28;20421;-76
2022/03/11 03:46:50;;;;;;;3.57;3.37;;;18.40;34.70;;;;;;5070743;28;20242;-76
2022/03/11 03:49:15;;;;;;;3.20;3.00;;;18.40;34.70;;;;;;5052473;28;20210;-76
2022/03/11 03:51:41;;;;;;;3.23;3.03;;;18.40;34.70;;;;;;5068817;28;20225;-76
2022/03/11 03:54:11;;;;;;;3.23;3.03;;;18.40;34.80;;;;;;5069216;28;20308;-76
2022/03/11 03:56:38;;;;;;;3.90;3.60;;;18.40;34.80;;;;;;5069312;28;20468;-76
2022/03/11 03:59:05;;;;;;;3.17;2.97;;;18.40;34.80;;;;;;5068661;28;20945;-76
2022/03/11 04:01:36;;;;;;;3.47;3.17;;;18.40;34.70;;;;;;5052857;28;20421;-75
2022/03/11 04:04:03;;;;;;;3.80;3.50;;;18.40;34.70;;;;;;5070953;28;20885;-77
2022/03/11 04:06:30;;;;;;;3.50;2.83;;;18.40;34.70;;;;;;5070648;28;20486;-77
2022/03/11 04:08:59;;;;;;;3.33;3.03;;;18.40;34.80;;;;;;5067636;28;20482;-77
2022/03/11 04:11:26;;;;;;;3.03;2.83;;;18.40;34.80;;;;;;5068446;28;20790;-77
2022/03/11 04:13:52;;;;;;;3.43;3.23;;;18.40;35.60;;;;;;5070775;28;20978;-77
2022/03/11 04:16:18;;;;;;;3.37;3.07;;;18.40;34.80;;;;;;5066932;28;20988;-77
2022/03/11 04:18:44;;;;;;;3.13;2.83;;;18.40;34.80;;;;;;5069590;28;20446;-77
2022/03/11 04:21:10;;;;;;;3.30;3.10;;;18.40;34.80;;;;;;5070663;28;21038;-77
2022/03/11 04:23:35;;;;;;;3.10;2.90;;;18.40;34.70;;;;;;5067554;28;20248;-76
2022/03/11 04:26:01;;;;;;;2.90;2.70;;;18.40;34.80;;;;;;5048964;28;20677;-77
2022/03/11 04:28:27;;;;;;;3.70;3.43;;;18.40;34.70;;;;;;5070159;28;20222;-77
2022/03/11 04:30:53;;;;;;;3.00;2.80;;;18.40;34.80;;;;;;5066648;28;20402;-77
2022/03/11 04:33:19;;;;;;;3.43;3.23;;;18.40;34.80;;;;;;5052587;28;20225;-76
2022/03/11 04:35:44;;;;;;;3.10;2.90;;;18.40;34.80;;;;;;5047180;28;20712;-77
2022/03/11 04:38:10;;;;;;;3.07;2.87;;;18.40;34.70;;;;;;5042028;28;20232;-77
2022/03/11 04:40:36;;;;;;;2.77;2.57;;;18.40;34.70;;;;;;5068630;28;20754;-77
2022/03/11 04:43:02;;;;;;;2.90;2.70;;;18.40;34.70;;;;;;5070068;28;20355;-77
2022/03/11 04:45:28;;;;;;;4.97;2.70;;;18.40;34.70;;;;;;5050370;28;20278;-77
2022/03/11 04:47:54;;;;;;;3.00;2.80;;;18.40;34.70;;;;;;5065791;28;20214;-77
2022/03/11 04:50:19;;;;;;;2.80;2.60;;;18.40;34.70;;;;;;5048491;28;26420;-77
2022/03/11 04:52:45;;;;;;;2.83;2.63;;;18.40;34.70;;;;;;5084405;28;20225;-77
2022/03/11 04:55:11;;;;;;;3.93;3.17;;;18.40;34.70;;;;;;5068751;28;20601;-77
2022/03/11 04:57:37;;;;;;;3.30;3.10;;;18.40;34.70;;;;;;5069339;28;20312;-77
2022/03/11 05:00:04;;;;;;;2.40;2.30;;;18.40;34.70;;;;;;5068953;28;20942;-76
2022/03/11 05:02:30;;;;;;;2.80;2.60;;;18.40;34.70;;;;;;5048231;28;20247;-77
2022/03/11 05:04:56;;;;;;;2.90;2.70;;;18.40;34.70;;;;;;5050928;28;20938;-77
2022/03/11 05:07:22;;;;;;;3.10;2.90;;;18.40;34.70;;;;;;5068846;28;20441;-77
2022/03/11 05:09:47;;;;;;;2.73;2.60;;;18.40;34.70;;;;;;5067841;28;20220;-77
2022/03/11 05:12:13;;;;;;;3.20;3.00;;;18.40;34.70;;;;;;5083188;28;20271;-77
2022/03/11 05:14:39;;;;;;;2.87;2.67;;;18.40;34.60;;;;;;5066822;28;20311;-75
2022/03/11 05:17:05;;;;;;;2.67;2.47;;;18.40;34.70;;;;;;5068994;28;20693;-76
2022/03/11 05:19:31;;;;;;;2.53;2.43;;;18.40;34.70;;;;;;5069281;28;20451;-77
2022/03/11 05:21:56;;;;;;;2.83;2.53;;;18.40;34.60;;;;;;5048482;28;20275;-77
2022/03/11 05:24:22;;;;;;;2.43;2.33;;;18.40;34.60;;;;;;5069380;28;20220;-78
2022/03/11 05:26:48;;;;;;;2.77;2.57;;;18.40;34.60;;;;;;5068050;28;20702;-78
2022/03/11 05:29:15;;;;;;;2.67;2.47;;;18.40;34.60;;;;;;5047492;28;20210;-78
2022/03/11 05:31:41;;;;;;;2.70;2.50;;;18.50;34.60;;;;;;5049825;28;20226;-78
2022/03/11 05:34:07;;;;;;;2.73;2.53;;;18.50;34.60;;;;;;5081946;28;20845;-78
2022/03/11 05:36:33;;;;;;;2.40;2.30;;;18.50;34.60;;;;;;5067970;28;20873;-78
2022/03/11 05:38:59;;;;;;;4.10;2.70;;;18.50;34.60;;;;;;5067979;28;20520;-78
2022/03/11 05:41:25;;;;;;;2.67;2.47;;;18.50;34.60;;;;;;5066766;28;20446;-78
2022/03/11 05:43:51;;;;;;;2.87;2.67;;;18.50;34.60;;;;;;5067108;28;20255;-78
2022/03/11 05:46:16;;;;;;;3.03;2.73;;;18.50;34.60;;;;;;5045722;28;20463;-79
2022/03/11 05:48:42;;;;;;;3.07;2.87;;;18.50;34.60;;;;;;5065304;28;20218;-79
2022/03/11 05:51:08;;;;;;;2.63;2.40;;;18.50;34.50;;;;;;5068612;28;20271;-77
2022/03/11 05:53:34;;;;;;;3.40;3.20;;;18.50;34.50;;;;;;5067652;28;20705;-75
2022/03/11 05:56:00;;;;;;;3.10;2.90;;;18.50;34.50;;;;;;5069538;28;20433;-77
2022/03/11 05:58:25;;;;;;;2.80;2.60;;;18.50;34.50;;;;;;5067270;28;20693;-77
2022/03/11 06:00:51;;;;;;;2.70;2.53;;;18.50;34.40;;;;;;5046930;28;20217;-77
2022/03/11 06:03:17;;;;;;;3.50;3.30;;;18.50;34.50;;;;;;5067408;28;20577;-77
2022/03/11 06:05:42;;;;;;;3.40;2.90;;;18.50;34.40;;;;;;5068537;28;20222;-78
2022/03/11 06:08:08;;;;;;;2.33;2.23;;;18.50;34.40;;;;;;5066963;28;20226;-78
2022/03/11 06:10:34;;;;;;;3.13;2.93;;;18.50;34.40;;;;;;5048360;28;20728;-78
2022/03/11 06:12:59;;;;;;;2.97;2.77;;;18.50;34.40;;;;;;5067050;28;20320;-78
2022/03/11 06:15:25;;;;;;;3.03;2.83;;;18.50;34.40;;;;;;5067537;28;20234;-78
2022/03/11 06:17:50;;;;;;;3.03;2.60;;;18.50;34.40;;;;;;5050362;28;20236;-79
2022/03/11 06:20:16;;;;;;;2.50;2.33;;;18.50;34.40;;;;;;5080519;28;20209;-78
2022/03/11 06:22:49;;;;;;;2.70;2.50;;;18.60;34.90;;;;;;5058875;28;20579;-78
2022/03/11 06:25:16;;;;;;;3.10;2.80;;;18.60;34.40;;;;;;5042713;28;20719;-76
2022/03/11 06:27:41;;;;;;;4.20;3.20;;;18.60;34.50;;;;;;5065992;28;20451;-75
2022/03/11 06:30:08;;;;;;;3.80;3.40;;;18.60;34.40;;;;;;5066376;28;20521;-79
2022/03/11 06:32:43;;;;;;;5.33;4.33;;;18.50;34.30;;;;;;5066769;28;20279;-79
2022/03/11 06:35:11;;;;;;;3.10;2.90;;;18.60;34.30;;;;;;5068343;28;20533;-81
2022/03/11 06:37:37;;;;;;;2.87;2.67;;;18.60;34.40;;;;;;5068257;28;20833;-79
2022/03/11 06:40:03;;;;;;;3.00;2.70;;;18.60;34.40;;;;;;5069008;28;20445;-79
2022/03/11 06:42:39;;;;;;;3.10;2.80;;;18.60;34.40;;;;;;5068992;28;20448;-79
2022/03/11 06:45:06;;;;;;;3.00;2.80;;;18.60;34.30;;;;;;5046105;28;20996;-79
2022/03/11 06:47:32;;;;;;;2.97;2.77;;;18.60;34.30;;;;;;5067604;28;20542;-79
2022/03/11 06:49:58;;;;;;;3.60;2.60;;;18.60;34.30;;;;;;5050997;28;21042;-78
2022/03/11 06:52:23;;;;;;;4.30;2.70;;;18.60;34.30;;;;;;5068370;28;20526;-79
2022/03/11 06:54:49;;;;;;;3.57;3.27;;;18.60;34.30;;;;;;5080351;28;20214;-78
2022/03/11 06:57:17;;;;;;;3.93;2.83;;;18.60;34.30;;;;;;5066464;28;20232;-78
2022/03/11 06:59:47;;;;;;;3.33;3.13;;;18.60;34.30;;;;;;5067412;28;20673;-80
2022/03/11 07:02:14;;;;;;;2.47;2.27;;;18.60;34.30;;;;;;5063686;28;20462;-78
2022/03/11 07:04:39;;;;;;;3.40;3.20;;;18.60;34.30;;;;;;5049075;28;20969;-79
2022/03/11 07:07:06;;;;;;;3.80;2.77;;;18.60;34.20;;;;;;5050503;28;20554;-81
2022/03/11 07:09:32;;;;;;;3.23;3.03;;;18.60;34.30;;;;;;5067286;28;20308;-79
2022/03/11 07:12:00;;;;;;;3.63;3.03;;;18.60;34.20;;;;;;5068513;28;20438;-79
2022/03/11 07:14:27;;;;;;;3.10;2.90;;;18.60;34.20;;;;;;5067405;28;21229;-80
2022/03/11 07:16:53;;;;;;;3.80;3.50;;;18.60;34.20;;;;;;5063869;28;20508;-80
2022/03/11 07:19:19;;;;;;;3.60;3.30;;;18.60;34.20;;;;;;5047785;28;20989;-80
2022/03/11 07:21:45;;;;;;;4.70;3.20;;;18.60;34.10;;;;;;5067470;28;20746;-80
2022/03/11 07:24:10;;;;;;;3.57;3.37;;;18.60;34.00;;;;;;5065988;28;20561;-79
2022/03/11 07:26:36;;;;;;;4.03;3.70;;;18.60;34.00;;;;;;5066389;28;20237;-79
2022/03/11 07:29:02;;;;;;;3.40;3.10;;;18.60;34.00;;;;;;5068447;28;20264;-78
2022/03/11 07:31:28;;;;;;;3.97;3.57;;;18.60;34.10;;;;;;5071173;28;20222;-78
2022/03/11 07:33:55;;;;;;;3.40;3.20;;;18.60;34.10;;;;;;5068263;28;20221;-77
2022/03/11 07:36:21;;;;;;;3.60;3.40;;;18.60;34.00;;;;;;5069307;28;20470;-79
2022/03/11 07:38:48;;;;;;;3.60;3.40;;;18.60;34.00;;;;;;5052463;28;20462;-78
2022/03/11 07:41:17;;;;;;;3.10;2.90;;;18.70;34.10;;;;;;5050757;28;20263;-78
2022/03/11 07:43:44;;;;;;;5.40;3.73;;;18.70;34.00;;;;;;5070253;28;21267;-77
2022/03/11 07:46:14;;;;;;;4.10;3.80;;;18.70;34.00;;;;;;5067022;28;20527;-78
2022/03/11 07:48:43;;;;;;;3.60;3.40;;;18.70;34.00;;;;;;5067694;28;20461;-79
2022/03/11 07:51:09;;;;;;;5.13;4.40;;;18.70;33.90;;;;;;5068759;28;20509;-78
2022/03/11 07:53:35;;;;;;;3.90;3.60;;;18.70;33.90;;;;;;5070007;28;20470;-82
2022/03/11 07:56:04;;;;;;;4.40;4.10;;;18.70;33.90;;;;;;5071941;28;20516;-76
2022/03/11 07:58:30;;;;;;;4.20;3.80;;;18.70;33.90;;;;;;5068907;28;20821;-80
2022/03/11 08:00:56;;;;;;;3.93;3.73;;;18.70;34.00;;;;;;5068011;28;20454;-76
2022/03/11 08:03:22;;;;;;;6.77;4.27;;;18.70;33.90;;;;;;5047752;28;21262;-77
2022/03/11 08:05:49;;;;;;;3.93;3.67;;;18.70;33.90;;;;;;5070762;28;20545;-78
2022/03/11 08:08:15;;;;;;;5.40;5.00;;;18.70;33.90;;;;;;5050461;28;20875;-77
2022/03/11 08:10:41;;;;;;;4.77;4.37;;;18.70;33.90;;;;;;5070539;28;20536;-78
2022/03/11 08:13:07;;;;;;;5.00;4.60;;;18.70;33.90;;;;;;5070652;28;20466;-79
2022/03/11 08:15:35;;;;;;;11.03;5.37;;;18.70;33.90;;;;;;5070539;28;20976;-79
2022/03/11 08:18:01;;;;;;;5.67;5.17;;;18.70;33.80;;;;;;5050001;28;20439;-77
2022/03/11 08:20:26;;;;;;;6.37;4.77;;;18.70;33.70;;;;;;5050430;28;20439;-77
2022/03/11 08:22:52;;;;;;;10.00;5.20;;;18.70;33.70;;;;;;5071696;28;20511;-79
2022/03/11 08:25:20;;;;;;;8.40;5.47;;;18.70;33.80;;;;;;5069963;28;20216;-80
2022/03/11 08:27:46;;;;;;;5.33;4.83;;;18.70;33.70;;;;;;5050885;28;20352;-79
2022/03/11 08:30:12;;;;;;;7.13;6.63;;;18.70;33.60;;;;;;5048694;28;20482;-80
2022/03/11 08:32:39;;;;;;;7.87;6.97;;;18.70;33.10;;;;;;5069159;28;20851;-79
2022/03/11 08:35:06;;;;;;;8.40;6.90;;;18.70;32.50;;;;;;5067816;28;20231;-80
2022/03/11 08:37:32;;;;;;;8.83;7.97;;;18.80;32.60;;;;;;5069190;28;20461;-78
2022/03/11 08:39:58;;;;;;;13.47;8.40;;;18.80;32.30;;;;;;5049623;28;20459;-76
2022/03/11 08:42:24;;;;;;;8.47;7.37;;;18.90;31.80;;;;;;5064001;28;20471;-81
2022/03/11 08:44:50;;;;;;;8.63;7.20;;;18.90;31.30;;;;;;5068652;28;20228;-79
2022/03/11 08:47:16;;;;;;;9.67;8.73;;;19.00;31.00;;;;;;5069905;28;20275;-81
2022/03/11 08:49:42;;;;;;;10.70;7.27;;;19.00;31.60;;;;;;5052138;28;20267;-79
2022/03/11 08:52:10;;;;;;;11.40;8.17;;;19.00;30.50;;;;;;5069945;28;20442;-78
2022/03/11 08:54:36;;;;;;;8.67;7.80;;;19.10;30.20;;;;;;5047929;28;20242;-80
2022/03/11 08:57:03;;;;;;;6.60;6.10;;;19.10;30.70;;;;;;5069511;28;20899;-79
2022/03/11 08:59:29;;;;;;;13.90;7.53;;;19.10;30.00;;;;;;5071573;28;20228;-80
2022/03/11 09:01:55;;;;;;;8.37;7.47;;;19.10;29.90;;;;;;5081710;28;20534;-83
2022/03/11 09:04:21;;;;;;;5.73;5.23;;;19.10;29.80;;;;;;5066887;28;20229;-79
2022/03/11 09:06:47;;;;;;;5.87;5.47;;;19.10;29.90;;;;;;5069207;28;20320;-81
2022/03/11 09:09:13;;;;;;;6.10;5.47;;;19.10;30.10;;;;;;5064581;28;20553;-80
2022/03/11 09:11:38;;;;;;;6.63;6.03;;;19.00;30.30;;;;;;5065997;28;20240;-79
2022/03/11 09:14:04;;;;;;;6.70;6.03;;;19.00;30.70;;;;;;5067865;28;20309;-82
2022/03/11 09:16:31;;;;;;;6.13;5.73;;;18.90;30.90;;;;;;5031239;28;20674;-79
2022/03/11 09:18:58;;;;;;;5.90;5.50;;;18.90;31.20;;;;;;5065325;28;20222;-81
2022/03/11 09:21:23;;;;;;;5.90;5.50;;;18.90;31.30;;;;;;5068089;28;20443;-81
2022/03/11 09:23:49;;;;;;;5.97;5.57;;;18.90;31.50;;;;;;5067268;28;20802;-80
2022/03/11 09:26:15;;;;;;;5.60;5.10;;;18.90;31.70;;;;;;5066081;28;20226;-82
2022/03/11 09:28:41;;;;;;;5.73;5.30;;;18.80;31.70;;;;;;5068640;28;20689;-79
2022/03/11 09:31:10;;;;;;;5.63;5.20;;;18.80;31.80;;;;;;5067488;28;20275;-79
2022/03/11 09:33:37;;;;;;;5.80;5.40;;;18.80;32.00;;;;;;5065510;28;20988;-78
2022/03/11 09:36:04;;;;;;;6.00;5.60;;;18.80;32.10;;;;;;5065683;28;20474;-80
2022/03/11 09:38:29;;;;;;;5.57;5.00;;;18.80;32.20;;;;;;5049158;28;20453;-78
2022/03/11 09:40:57;;;;;;;5.93;5.47;;;18.80;32.30;;;;;;5068802;28;20458;-86
2022/03/11 09:43:23;;;;;;;4.93;4.60;;;18.80;32.60;;;;;;5051703;28;20488;-79
2022/03/11 09:45:49;;;;;;;6.13;5.63;;;18.80;32.60;;;;;;5068681;28;20453;-83
2022/03/11 09:48:16;;;;;;;5.70;5.30;;;18.80;32.60;;;;;;5068690;28;20478;-74
2022/03/11 09:50:43;;;;;;;5.67;5.20;;;18.80;32.60;;;;;;5069367;28;20525;-75
2022/03/11 09:53:10;;;;;;;5.80;5.40;;;18.80;32.60;;;;;;5067388;28;20459;-75
2022/03/11 09:55:35;;;;;;;8.30;5.60;;;18.70;32.50;;;;;;5037233;28;20836;-76
2022/03/11 09:58:01;;;;;;;5.70;5.30;;;18.70;32.50;;;;;;5068656;28;20454;-79
2022/03/11 10:00:27;;;;;;;5.90;5.27;;;18.70;33.30;;;;;;5066360;28;20221;-77
2022/03/11 10:02:52;;;;;;;5.77;5.37;;;18.70;32.50;;;;;;5050449;28;20214;-77
2022/03/11 10:05:18;;;;;;;5.23;4.93;;;18.70;33.30;;;;;;5048752;28;20221;-79
2022/03/11 10:07:44;;;;;;;5.60;5.20;;;18.70;32.60;;;;;;5067405;28;20248;-76
2022/03/11 10:10:19;;;;;;;5.70;5.30;;;18.70;32.50;;;;;;5066201;28;20221;-79
2022/03/11 10:12:46;;;;;;;5.43;5.03;;;18.70;32.50;;;;;;5068541;28;20233;-78
2022/03/11 10:15:14;;;;;;;5.53;5.13;;;18.70;32.50;;;;;;5067330;28;20462;-75
2022/03/11 10:17:44;;;;;;;6.00;5.60;;;18.70;32.50;;;;;;5068830;28;20965;-78
2022/03/11 10:20:13;;;;;;;5.33;5.03;;;18.70;32.50;;;;;;5070313;28;20446;-79
2022/03/11 10:22:40;;;;;;;6.17;5.13;;;18.70;32.50;;;;;;5067837;28;20864;-76
2022/03/11 10:25:16;;;;;;;6.00;5.40;;;18.70;32.60;;;;;;5066968;28;20805;-76
2022/03/11 10:28:03;;;;;;;5.40;5.00;;;18.70;32.60;;;;;;5065763;28;21040;-77
2022/03/11 10:30:34;;;;;;;7.50;5.77;;;18.70;32.50;;;;;;5054038;28;20451;-77
2022/03/11 10:33:03;;;;;;;5.20;4.80;;;18.70;32.50;;;;;;5051147;28;20496;-75
2022/03/11 10:35:45;;;;;;;5.87;5.03;;;18.70;32.50;;;;;;5056168;28;20448;-78
2022/03/11 10:38:13;;;;;;;8.93;5.53;;;18.60;32.40;;;;;;5051772;28;20535;-77
2022/03/11 10:40:56;;;;;;;5.13;4.70;;;18.60;32.40;;;;;;5044788;28;20559;-77
2022/03/11 10:43:26;;;;;;;5.37;4.97;;;18.70;32.50;;;;;;5046162;28;20445;-77
2022/03/11 10:46:06;;;;;;;5.47;5.10;;;18.60;32.40;;;;;;5053247;28;20443;-76
2022/03/11 10:48:53;;;;;;;6.40;5.90;;;18.60;32.40;;;;;;5063307;28;20796;-77
2022/03/11 10:51:19;;;;;;;5.73;5.23;;;18.60;32.50;;;;;;5067065;28;20804;-77
2022/03/11 10:53:49;;;;;;;5.33;5.03;;;18.60;32.40;;;;;;5067586;28;20418;-77
2022/03/11 10:56:29;;;;;;;5.40;5.00;;;18.60;32.40;;;;;;5066503;28;20948;-77
2022/03/11 10:58:58;;;;;;;5.23;4.83;;;18.60;32.40;;;;;;5067576;28;20785;-77
2022/03/11 11:01:37;;;;;;;5.60;5.30;;;18.60;32.40;;;;;;5066503;28;20513;-77
2022/03/11 11:04:07;;;;;;;5.43;5.03;;;18.60;32.40;;;;;;5064777;28;20459;-76
2022/03/11 11:06:33;;;;;;;5.70;5.30;;;18.60;32.40;;;;;;5051289;28;20497;-77
2022/03/11 11:08:59;;;;;;;5.93;5.53;;;18.60;32.50;;;;;;5053482;28;20471;-77
2022/03/11 11:11:26;;;;;;;26.23;6.07;;;18.60;32.40;;;;;;5048326;28;20446;-78
2022/03/11 11:13:52;;;;;;;6.20;5.17;;;18.70;32.50;;;;;;5050948;28;20455;-78
2022/03/11 11:16:23;;;;;;;30.13;6.70;;;18.70;32.50;;;;;;5048591;28;20459;-78
2022/03/11 11:18:51;;;;;;;14.13;5.50;;;18.80;32.60;;;;;;5045553;28;20970;-78
2022/03/11 11:21:24;;;;;;;8.10;6.57;;;18.90;32.70;;;;;;5059815;28;20492;-78
2022/03/11 11:23:57;;;;;;;7.63;6.43;;;19.00;32.50;;;;;;5052095;28;20885;-78
2022/03/11 11:26:24;;;;;;;6.67;5.83;;;19.00;32.20;;;;;;5050465;28;20436;-78
2022/03/11 11:28:55;;;;;;;8.60;6.07;;;19.00;32.00;;;;;;5049066;28;25204;-78
2022/03/11 11:31:22;;;;;;;9.53;6.30;;;19.10;31.90;;;;;;5045348;28;20803;-78
2022/03/11 11:33:49;;;;;;;7.70;7.00;;;19.10;31.80;;;;;;5058514;28;20501;-79
2022/03/11 11:36:34;;;;;;;10.70;7.10;;;19.10;31.60;;;;;;5050335;28;20563;-78
2022/03/11 11:39:05;;;;;;;7.10;6.53;;;19.10;31.50;;;;;;5049594;28;20526;-78
2022/03/11 11:41:32;;;;;;;8.23;6.80;;;19.10;31.40;;;;;;5049760;28;20459;-78
2022/03/11 11:44:02;;;;;;;8.03;7.33;;;19.10;31.20;;;;;;5051332;28;20432;-78
2022/03/11 11:46:33;;;;;;;10.93;6.73;;;19.10;31.10;;;;;;5049079;28;20533;-78
2022/03/11 11:49:13;;;;;;;6.97;6.37;;;19.10;30.80;;;;;;5051179;28;20453;-78
2022/03/11 11:51:38;;;;;;;11.57;8.67;;;19.20;30.80;;;;;;5049101;28;20841;-77
2022/03/11 11:54:09;;;;;;;10.50;6.53;;;19.10;30.50;;;;;;5053723;28;20454;-77
2022/03/11 11:56:53;;;;;;;5.67;5.20;;;19.10;30.60;;;;;;5056073;28;20234;-78
2022/03/11 11:59:19;;;;;;;4.70;4.37;;;19.10;30.80;;;;;;5068405;28;20823;-78
2022/03/11 12:01:50;;;;;;;5.83;5.27;;;19.00;31.10;;;;;;5072813;28;20543;-79
2022/03/11 12:04:34;;;;;;;5.30;4.90;;;19.00;31.40;;;;;;5071309;28;20454;-79
2022/03/11 12:07:09;;;;;;;5.63;5.13;;;18.90;31.50;;;;;;5060778;28;20955;-79
2022/03/11 12:09:38;;;;;;;5.60;5.03;;;18.90;31.70;;;;;;5050335;28;20554;-79
2022/03/11 12:12:04;;;;;;;5.73;5.23;;;18.90;31.90;;;;;;5049418;28;20463;-79
2022/03/11 12:14:30;;;;;;;5.80;5.40;;;18.80;32.00;;;;;;5051710;28;20462;-79
2022/03/11 12:17:07;;;;;;;5.40;5.00;;;18.80;32.10;;;;;;5069493;28;20454;-79
2022/03/11 12:19:46;;;;;;;6.00;5.60;;;18.80;32.40;;;;;;5067515;28;20226;-79
2022/03/11 12:22:31;;;;;;;5.43;5.13;;;18.80;32.50;;;;;;5049508;28;20450;-79
2022/03/11 12:25:02;;;;;;;6.43;5.93;;;18.80;32.60;;;;;;5067173;28;20458;-79
2022/03/11 12:28:04;;;;;;;5.87;4.80;;;18.80;32.60;;;;;;5067787;28;21183;-79
2022/03/11 12:30:35;;;;;;;5.53;5.10;;;18.80;32.60;;;;;;5069218;28;21119;-79
2022/03/11 12:33:07;;;;;;;6.20;5.70;;;18.80;32.60;;;;;;5044804;28;20456;-74
2022/03/11 12:35:33;;;;;;;4.87;4.57;;;18.70;32.50;;;;;;5046564;28;20466;-77
2022/03/11 12:38:00;;;;;;;5.17;4.77;;;18.70;32.60;;;;;;5050628;28;20503;-78
2022/03/11 12:40:26;;;;;;;5.23;4.83;;;18.70;32.50;;;;;;5056333;28;20214;-77
2022/03/11 12:43:01;;;;;;;5.23;4.93;;;18.80;32.60;;;;;;5045270;28;20438;-78
2022/03/11 12:45:38;;;;;;;5.30;4.83;;;18.70;32.50;;;;;;5067861;28;20956;-78
2022/03/11 12:48:05;;;;;;;5.90;5.40;;;18.70;32.50;;;;;;5070224;28;20550;-77
2022/03/11 12:50:30;;;;;;;8.00;5.63;;;18.70;32.50;;;;;;5069942;28;20434;-77